Cottonville, North Carolina
Current Conditions -  °F | °C
As of 3:35 AM on Wednesday 26 Nov 2014 (Local Time) from KVUJ Reporting Station
Moderate Rain Moderate Rain  
Wind Chill:   Ceiling: 800
Heat Index:   Visibility: 7mi
Dew Point:   Wind: 10mph
Humidity: 100%   Direction: 350°N
Pressure: 29.99"   Gusts: NA
Location:  35.2152°N, 80.1663°W
Report Text: KVUJ 260835Z AUTO 35009KT 7SM RA OVC008 08/08 A2999 RMK AO2 P0005 T00780078
Loading
Personal Weather Stations






























Interactive Weather Map New forecast layout! Learn more

10-Day Weather Forecast

Advertisements
Track Severe Weather on mobile